sensor_id;sensor_type;location;lat;lon;timestamp;pressure;altitude;pressure_sealevel;temperature;humidity
20930;BME280;21895;47.072;15.132;2023-09-07T00:01:32;97477.00;;;14.38;83.60
20930;BME280;21895;47.072;15.132;2023-09-07T00:03:59;97474.00;;;14.39;83.67
20930;BME280;21895;47.072;15.132;2023-09-07T00:06:26;97474.00;;;14.38;83.87
20930;BME280;21895;47.072;15.132;2023-09-07T00:08:53;97478.00;;;14.38;84.27
20930;BME280;21895;47.072;15.132;2023-09-07T00:11:19;97477.00;;;14.39;83.62
20930;BME280;21895;47.072;15.132;2023-09-07T00:13:46;97480.00;;;14.38;83.09
20930;BME280;21895;47.072;15.132;2023-09-07T00:16:12;97476.00;;;14.34;82.99
20930;BME280;21895;47.072;15.132;2023-09-07T00:18:39;97476.00;;;14.27;82.49
20930;BME280;21895;47.072;15.132;2023-09-07T00:21:06;97477.00;;;14.24;82.40
20930;BME280;21895;47.072;15.132;2023-09-07T00:23:32;97479.00;;;14.21;82.55
20930;BME280;21895;47.072;15.132;2023-09-07T00:25:59;97475.00;;;14.20;82.26
20930;BME280;21895;47.072;15.132;2023-09-07T00:28:25;97468.00;;;14.15;82.92
20930;BME280;21895;47.072;15.132;2023-09-07T00:30:52;97463.00;;;14.15;82.67
20930;BME280;21895;47.072;15.132;2023-09-07T00:33:19;97472.00;;;13.98;83.10
20930;BME280;21895;47.072;15.132;2023-09-07T00:35:45;97469.00;;;13.96;83.66
20930;BME280;21895;47.072;15.132;2023-09-07T00:38:12;97466.00;;;13.93;84.28
20930;BME280;21895;47.072;15.132;2023-09-07T00:40:42;97468.00;;;13.95;84.48
20930;BME280;21895;47.072;15.132;2023-09-07T00:43:09;97463.00;;;13.96;84.35
20930;BME280;21895;47.072;15.132;2023-09-07T00:45:36;97456.00;;;14.03;84.61
20930;BME280;21895;47.072;15.132;2023-09-07T00:48:03;97455.00;;;14.07;84.40
20930;BME280;21895;47.072;15.132;2023-09-07T00:50:30;97448.00;;;14.11;84.25
20930;BME280;21895;47.072;15.132;2023-09-07T00:52:57;97447.00;;;14.16;83.39
20930;BME280;21895;47.072;15.132;2023-09-07T00:55:27;97446.00;;;14.09;82.63
20930;BME280;21895;47.072;15.132;2023-09-07T00:57:55;97441.00;;;14.02;82.79
20930;BME280;21895;47.072;15.132;2023-09-07T01:00:21;97432.00;;;13.96;82.83
20930;BME280;21895;47.072;15.132;2023-09-07T01:02:48;97442.00;;;13.89;82.71
20930;BME280;21895;47.072;15.132;2023-09-07T01:05:15;97442.00;;;13.89;82.94
20930;BME280;21895;47.072;15.132;2023-09-07T01:07:53;97439.00;;;13.84;83.21
20930;BME280;21895;47.072;15.132;2023-09-07T01:10:20;97435.00;;;13.82;83.21
20930;BME280;21895;47.072;15.132;2023-09-07T01:12:49;97441.00;;;13.83;83.07
20930;BME280;21895;47.072;15.132;2023-09-07T01:15:15;97436.00;;;13.82;82.89
20930;BME280;21895;47.072;15.132;2023-09-07T01:17:43;97440.00;;;13.76;82.36
20930;BME280;21895;47.072;15.132;2023-09-07T01:20:12;97435.00;;;13.73;82.37
20930;BME280;21895;47.072;15.132;2023-09-07T01:22:43;97445.00;;;13.68;83.03
20930;BME280;21895;47.072;15.132;2023-09-07T01:25:10;97431.00;;;13.66;83.77
20930;BME280;21895;47.072;15.132;2023-09-07T01:27:37;97427.00;;;13.73;85.17
20930;BME280;21895;47.072;15.132;2023-09-07T01:30:05;97428.00;;;13.74;85.11
20930;BME280;21895;47.072;15.132;2023-09-07T01:32:32;97438.00;;;13.73;83.44
20930;BME280;21895;47.072;15.132;2023-09-07T01:34:59;97436.00;;;13.64;83.11
20930;BME280;21895;47.072;15.132;2023-09-07T01:37:27;97430.00;;;13.61;83.83
20930;BME280;21895;47.072;15.132;2023-09-07T01:39:54;97431.00;;;13.71;84.19
20930;BME280;21895;47.072;15.132;2023-09-07T01:42:20;97435.00;;;13.85;83.29
20930;BME280;21895;47.072;15.132;2023-09-07T01:44:48;97431.00;;;13.77;82.71
20930;BME280;21895;47.072;15.132;2023-09-07T01:47:14;97427.00;;;13.70;83.13
20930;BME280;21895;47.072;15.132;2023-09-07T01:49:41;97424.00;;;13.75;82.93
20930;BME280;21895;47.072;15.132;2023-09-07T01:52:08;97423.00;;;13.71;82.68
20930;BME280;21895;47.072;15.132;2023-09-07T01:54:34;97422.00;;;13.61;82.55
20930;BME280;21895;47.072;15.132;2023-09-07T01:57:01;97414.00;;;13.58;82.83
20930;BME280;21895;47.072;15.132;2023-09-07T01:59:28;97425.00;;;13.60;83.01
20930;BME280;21895;47.072;15.132;2023-09-07T02:01:55;97420.00;;;13.52;82.97
20930;BME280;21895;47.072;15.132;2023-09-07T02:04:21;97422.00;;;13.50;82.86
20930;BME280;21895;47.072;15.132;2023-09-07T02:06:48;97419.00;;;13.48;83.53
20930;BME280;21895;47.072;15.132;2023-09-07T02:09:15;97428.00;;;13.48;83.42
20930;BME280;21895;47.072;15.132;2023-09-07T02:11:41;97420.00;;;13.49;83.28
20930;BME280;21895;47.072;15.132;2023-09-07T02:14:08;97416.00;;;13.43;83.23
20930;BME280;21895;47.072;15.132;2023-09-07T02:16:35;97417.00;;;13.42;83.02
20930;BME280;21895;47.072;15.132;2023-09-07T02:19:03;97422.00;;;13.38;82.83
20930;BME280;21895;47.072;15.132;2023-09-07T02:21:30;97422.00;;;13.27;82.87
20930;BME280;21895;47.072;15.132;2023-09-07T02:23:57;97415.00;;;13.29;82.97
20930;BME280;21895;47.072;15.132;2023-09-07T02:26:24;97427.00;;;13.26;83.46
20930;BME280;21895;47.072;15.132;2023-09-07T02:28:50;97420.00;;;13.32;83.28
20930;BME280;21895;47.072;15.132;2023-09-07T02:31:17;97425.00;;;13.39;83.21
20930;BME280;21895;47.072;15.132;2023-09-07T02:33:43;97426.00;;;13.47;82.17
20930;BME280;21895;47.072;15.132;2023-09-07T02:36:10;97421.00;;;13.32;82.36
20930;BME280;21895;47.072;15.132;2023-09-07T02:38:36;97416.00;;;13.29;82.57
20930;BME280;21895;47.072;15.132;2023-09-07T02:41:03;97422.00;;;13.30;82.82
20930;BME280;21895;47.072;15.132;2023-09-07T02:43:30;97422.00;;;13.20;82.77
20930;BME280;21895;47.072;15.132;2023-09-07T02:45:57;97424.00;;;13.18;82.63
20930;BME280;21895;47.072;15.132;2023-09-07T02:48:23;97417.00;;;13.18;82.31
20930;BME280;21895;47.072;15.132;2023-09-07T02:50:50;97422.00;;;13.12;82.59
20930;BME280;21895;47.072;15.132;2023-09-07T02:53:17;97423.00;;;13.04;83.03
20930;BME280;21895;47.072;15.132;2023-09-07T02:55:43;97415.00;;;13.02;83.99
20930;BME280;21895;47.072;15.132;2023-09-07T02:58:10;97418.00;;;13.07;84.58
20930;BME280;21895;47.072;15.132;2023-09-07T03:00:42;97418.00;;;13.13;84.86
20930;BME280;21895;47.072;15.132;2023-09-07T03:03:14;97421.00;;;13.19;84.68
20930;BME280;21895;47.072;15.132;2023-09-07T03:05:43;97425.00;;;13.18;83.78
20930;BME280;21895;47.072;15.132;2023-09-07T03:08:11;97421.00;;;13.17;83.73
20930;BME280;21895;47.072;15.132;2023-09-07T03:10:39;97432.00;;;13.13;83.08
20930;BME280;21895;47.072;15.132;2023-09-07T03:13:07;97423.00;;;13.04;82.89
20930;BME280;21895;47.072;15.132;2023-09-07T03:15:33;97430.00;;;12.98;83.05
20930;BME280;21895;47.072;15.132;2023-09-07T03:18:00;97427.00;;;12.93;83.19
20930;BME280;21895;47.072;15.132;2023-09-07T03:20:27;97430.00;;;12.86;83.39
20930;BME280;21895;47.072;15.132;2023-09-07T03:22:53;97430.00;;;12.91;83.73
20930;BME280;21895;47.072;15.132;2023-09-07T03:25:20;97431.00;;;12.92;83.21
20930;BME280;21895;47.072;15.132;2023-09-07T03:27:47;97423.00;;;12.87;82.63
20930;BME280;21895;47.072;15.132;2023-09-07T03:30:13;97425.00;;;12.78;82.65
20930;BME280;21895;47.072;15.132;2023-09-07T03:32:40;97425.00;;;12.72;83.45
20930;BME280;21895;47.072;15.132;2023-09-07T03:35:07;97420.00;;;12.80;83.66
20930;BME280;21895;47.072;15.132;2023-09-07T03:37:38;97417.00;;;12.87;83.85
20930;BME280;21895;47.072;15.132;2023-09-07T03:40:07;97420.00;;;12.83;84.00
20930;BME280;21895;47.072;15.132;2023-09-07T03:42:35;97418.00;;;12.87;83.73
20930;BME280;21895;47.072;15.132;2023-09-07T03:45:02;97412.00;;;12.90;83.20
20930;BME280;21895;47.072;15.132;2023-09-07T03:47:29;97412.00;;;12.93;82.96
20930;BME280;21895;47.072;15.132;2023-09-07T03:49:57;97420.00;;;12.92;82.82
20930;BME280;21895;47.072;15.132;2023-09-07T03:52:25;97418.00;;;12.84;83.06
20930;BME280;21895;47.072;15.132;2023-09-07T03:54:55;97419.00;;;12.86;83.44
20930;BME280;21895;47.072;15.132;2023-09-07T03:57:23;97418.00;;;12.87;83.30
20930;BME280;21895;47.072;15.132;2023-09-07T03:59:50;97421.00;;;12.89;83.17
20930;BME280;21895;47.072;15.132;2023-09-07T04:02:17;97429.00;;;12.91;82.96
20930;BME280;21895;47.072;15.132;2023-09-07T04:04:52;97417.00;;;12.83;82.46
20930;BME280;21895;47.072;15.132;2023-09-07T04:07:19;97420.00;;;12.80;82.64
20930;BME280;21895;47.072;15.132;2023-09-07T04:09:46;97421.00;;;12.67;82.83
20930;BME280;21895;47.072;15.132;2023-09-07T04:12:13;97420.00;;;12.68;83.68
20930;BME280;21895;47.072;15.132;2023-09-07T04:14:39;97425.00;;;12.72;83.76
20930;BME280;21895;47.072;15.132;2023-09-07T04:17:08;97424.00;;;12.71;83.85
20930;BME280;21895;47.072;15.132;2023-09-07T04:19:34;97427.00;;;12.73;83.61
20930;BME280;21895;47.072;15.132;2023-09-07T04:22:01;97429.00;;;12.76;83.71
20930;BME280;21895;47.072;15.132;2023-09-07T04:24:29;97430.00;;;12.78;83.47
20930;BME280;21895;47.072;15.132;2023-09-07T04:27:03;97435.00;;;12.81;83.37
20930;BME280;21895;47.072;15.132;2023-09-07T04:29:30;97443.00;;;12.82;82.78
20930;BME280;21895;47.072;15.132;2023-09-07T04:31:57;97444.00;;;12.77;82.45
20930;BME280;21895;47.072;15.132;2023-09-07T04:34:23;97439.00;;;12.70;82.54
20930;BME280;21895;47.072;15.132;2023-09-07T04:36:50;97442.00;;;12.60;83.28
20930;BME280;21895;47.072;15.132;2023-09-07T04:39:17;97447.00;;;12.62;83.99
20930;BME280;21895;47.072;15.132;2023-09-07T04:41:44;97456.00;;;12.64;84.90
20930;BME280;21895;47.072;15.132;2023-09-07T04:44:10;97451.00;;;12.75;85.52
20930;BME280;21895;47.072;15.132;2023-09-07T04:46:37;97444.00;;;12.83;84.87
20930;BME280;21895;47.072;15.132;2023-09-07T04:49:04;97449.00;;;12.87;84.43
20930;BME280;21895;47.072;15.132;2023-09-07T04:51:30;97454.00;;;12.91;83.69
20930;BME280;21895;47.072;15.132;2023-09-07T04:53:57;97452.00;;;12.92;83.34
20930;BME280;21895;47.072;15.132;2023-09-07T04:56:23;97450.00;;;12.91;83.08
20930;BME280;21895;47.072;15.132;2023-09-07T04:58:51;97446.00;;;12.91;83.11
20930;BME280;21895;47.072;15.132;2023-09-07T05:01:18;97452.00;;;12.96;83.29
20930;BME280;21895;47.072;15.132;2023-09-07T05:03:45;97449.00;;;13.02;83.01
20930;BME280;21895;47.072;15.132;2023-09-07T05:06:12;97458.00;;;13.04;83.06
20930;BME280;21895;47.072;15.132;2023-09-07T05:08:39;97453.00;;;13.07;82.96
20930;BME280;21895;47.072;15.132;2023-09-07T05:11:06;97459.00;;;13.11;82.78
20930;BME280;21895;47.072;15.132;2023-09-07T05:13:32;97458.00;;;13.20;82.87
20930;BME280;21895;47.072;15.132;2023-09-07T05:16:00;97452.00;;;13.27;82.98
20930;BME280;21895;47.072;15.132;2023-09-07T05:18:27;97458.00;;;13.34;83.24
20930;BME280;21895;47.072;15.132;2023-09-07T05:20:54;97459.00;;;13.34;82.85
20930;BME280;21895;47.072;15.132;2023-09-07T05:23:22;97455.00;;;13.41;82.95
20930;BME280;21895;47.072;15.132;2023-09-07T05:25:51;97459.00;;;13.49;83.15
20930;BME280;21895;47.072;15.132;2023-09-07T05:28:22;97458.00;;;13.57;83.62
20930;BME280;21895;47.072;15.132;2023-09-07T05:30:49;97467.00;;;13.68;83.47
20930;BME280;21895;47.072;15.132;2023-09-07T05:33:17;97463.00;;;13.77;83.81
20930;BME280;21895;47.072;15.132;2023-09-07T05:35:45;97462.00;;;13.86;84.35
20930;BME280;21895;47.072;15.132;2023-09-07T05:38:14;97466.00;;;13.98;84.54
20930;BME280;21895;47.072;15.132;2023-09-07T05:40:44;97468.00;;;14.17;84.66
20930;BME280;21895;47.072;15.132;2023-09-07T05:43:11;97466.00;;;14.33;84.95
20930;BME280;21895;47.072;15.132;2023-09-07T05:45:41;97471.00;;;14.56;85.06
20930;BME280;21895;47.072;15.132;2023-09-07T05:48:08;97469.00;;;14.90;85.15
20930;BME280;21895;47.072;15.132;2023-09-07T05:50:37;97470.00;;;15.28;84.59
20930;BME280;21895;47.072;15.132;2023-09-07T05:53:04;97472.00;;;15.54;83.60
20930;BME280;21895;47.072;15.132;2023-09-07T05:55:31;97471.00;;;15.91;83.37
20930;BME280;21895;47.072;15.132;2023-09-07T05:57:58;97469.00;;;16.24;82.23
20930;BME280;21895;47.072;15.132;2023-09-07T06:00:27;97471.00;;;16.55;81.17
20930;BME280;21895;47.072;15.132;2023-09-07T06:02:54;97464.00;;;16.81;79.34
20930;BME280;21895;47.072;15.132;2023-09-07T06:05:21;97468.00;;;17.10;78.41
20930;BME280;21895;47.072;15.132;2023-09-07T06:07:47;97472.00;;;17.35;77.47
20930;BME280;21895;47.072;15.132;2023-09-07T06:10:14;97470.00;;;17.55;76.90
20930;BME280;21895;47.072;15.132;2023-09-07T06:12:41;97468.00;;;17.71;74.64
20930;BME280;21895;47.072;15.132;2023-09-07T06:15:08;97469.00;;;17.92;74.23
20930;BME280;21895;47.072;15.132;2023-09-07T06:17:35;97471.00;;;18.15;72.08
20930;BME280;21895;47.072;15.132;2023-09-07T06:20:04;97472.00;;;18.43;71.83
20930;BME280;21895;47.072;15.132;2023-09-07T06:22:32;97472.00;;;18.63;71.24
20930;BME280;21895;47.072;15.132;2023-09-07T06:24:59;97473.00;;;18.81;71.54
20930;BME280;21895;47.072;15.132;2023-09-07T06:27:25;97476.00;;;19.13;71.99
20930;BME280;21895;47.072;15.132;2023-09-07T06:29:52;97474.00;;;19.36;70.58
20930;BME280;21895;47.072;15.132;2023-09-07T06:32:21;97477.00;;;19.58;70.35
20930;BME280;21895;47.072;15.132;2023-09-07T06:34:48;97473.00;;;19.59;68.45
20930;BME280;21895;47.072;15.132;2023-09-07T06:37:15;97476.00;;;19.64;67.96
20930;BME280;21895;47.072;15.132;2023-09-07T06:39:41;97481.00;;;19.62;68.13
20930;BME280;21895;47.072;15.132;2023-09-07T06:42:09;97478.00;;;19.72;67.90
20930;BME280;21895;47.072;15.132;2023-09-07T06:44:36;97483.00;;;19.85;67.50
20930;BME280;21895;47.072;15.132;2023-09-07T06:47:03;97483.00;;;19.86;66.93
20930;BME280;21895;47.072;15.132;2023-09-07T06:49:30;97489.00;;;19.92;67.82
20930;BME280;21895;47.072;15.132;2023-09-07T06:51:57;97483.00;;;19.95;66.95
20930;BME280;21895;47.072;15.132;2023-09-07T06:54:24;97489.00;;;19.89;67.43
20930;BME280;21895;47.072;15.132;2023-09-07T06:56:50;97488.00;;;20.01;67.38
20930;BME280;21895;47.072;15.132;2023-09-07T06:59:17;97496.00;;;20.14;67.70
20930;BME280;21895;47.072;15.132;2023-09-07T07:01:44;97490.00;;;20.38;66.85
20930;BME280;21895;47.072;15.132;2023-09-07T07:04:10;97495.00;;;20.58;65.80
20930;BME280;21895;47.072;15.132;2023-09-07T07:06:37;97494.00;;;20.72;65.88
20930;BME280;21895;47.072;15.132;2023-09-07T07:09:05;97486.00;;;21.07;64.80
20930;BME280;21895;47.072;15.132;2023-09-07T07:11:31;97489.00;;;21.29;63.21
20930;BME280;21895;47.072;15.132;2023-09-07T07:13:58;97493.00;;;21.35;61.72
20930;BME280;21895;47.072;15.132;2023-09-07T07:16:25;97492.00;;;21.66;61.26
20930;BME280;21895;47.072;15.132;2023-09-07T07:18:51;97489.00;;;21.80;61.92
20930;BME280;21895;47.072;15.132;2023-09-07T07:21:18;97497.00;;;21.88;60.88
20930;BME280;21895;47.072;15.132;2023-09-07T07:23:44;97489.00;;;22.08;60.12
20930;BME280;21895;47.072;15.132;2023-09-07T07:26:11;97489.00;;;22.26;59.14
20930;BME280;21895;47.072;15.132;2023-09-07T07:28:38;97494.00;;;22.14;60.29
20930;BME280;21895;47.072;15.132;2023-09-07T07:31:11;97494.00;;;22.12;60.71
20930;BME280;21895;47.072;15.132;2023-09-07T07:33:37;97492.00;;;22.37;59.21
20930;BME280;21895;47.072;15.132;2023-09-07T07:36:05;97491.00;;;22.62;58.81
20930;BME280;21895;47.072;15.132;2023-09-07T07:38:32;97485.00;;;22.73;58.42
20930;BME280;21895;47.072;15.132;2023-09-07T07:40:58;97490.00;;;22.77;58.56
20930;BME280;21895;47.072;15.132;2023-09-07T07:43:25;97489.00;;;22.82;59.00
20930;BME280;21895;47.072;15.132;2023-09-07T07:45:54;97489.00;;;22.93;58.20
20930;BME280;21895;47.072;15.132;2023-09-07T07:48:21;97489.00;;;23.03;57.39
20930;BME280;21895;47.072;15.132;2023-09-07T07:50:48;97485.00;;;23.38;55.65
20930;BME280;21895;47.072;15.132;2023-09-07T07:53:15;97494.00;;;23.59;54.71
20930;BME280;21895;47.072;15.132;2023-09-07T07:55:41;97486.00;;;23.68;54.51
20930;BME280;21895;47.072;15.132;2023-09-07T07:58:09;97487.00;;;23.91;53.45
20930;BME280;21895;47.072;15.132;2023-09-07T08:03:12;97490.00;;;24.29;55.32
20930;BME280;21895;47.072;15.132;2023-09-07T08:05:38;97487.00;;;24.43;52.28
20930;BME280;21895;47.072;15.132;2023-09-07T08:08:06;97492.00;;;24.60;51.89
20930;BME280;21895;47.072;15.132;2023-09-07T08:10:37;97490.00;;;24.65;51.42
20930;BME280;21895;47.072;15.132;2023-09-07T08:13:04;97487.00;;;24.89;51.62
20930;BME280;21895;47.072;15.132;2023-09-07T08:15:32;97491.00;;;24.79;53.09
20930;BME280;21895;47.072;15.132;2023-09-07T08:18:00;97484.00;;;24.91;53.82
20930;BME280;21895;47.072;15.132;2023-09-07T08:20:27;97481.00;;;25.04;53.42
20930;BME280;21895;47.072;15.132;2023-09-07T08:22:55;97484.00;;;25.13;53.33
20930;BME280;21895;47.072;15.132;2023-09-07T08:25:22;97476.00;;;25.05;54.06
20930;BME280;21895;47.072;15.132;2023-09-07T08:27:49;97486.00;;;25.07;54.50
20930;BME280;21895;47.072;15.132;2023-09-07T08:30:17;97481.00;;;25.18;54.74
20930;BME280;21895;47.072;15.132;2023-09-07T08:32:45;97482.00;;;25.40;55.02
20930;BME280;21895;47.072;15.132;2023-09-07T08:35:17;97485.00;;;25.41;54.65
20930;BME280;21895;47.072;15.132;2023-09-07T08:37:44;97486.00;;;25.66;54.14
20930;BME280;21895;47.072;15.132;2023-09-07T08:40:11;97488.00;;;25.76;53.39
20930;BME280;21895;47.072;15.132;2023-09-07T08:42:39;97484.00;;;25.89;51.91
20930;BME280;21895;47.072;15.132;2023-09-07T08:45:08;97484.00;;;25.94;52.88
20930;BME280;21895;47.072;15.132;2023-09-07T08:47:38;97492.00;;;26.08;52.11
20930;BME280;21895;47.072;15.132;2023-09-07T08:50:06;97486.00;;;26.18;50.90
20930;BME280;21895;47.072;15.132;2023-09-07T08:52:37;97487.00;;;26.17;48.83
20930;BME280;21895;47.072;15.132;2023-09-07T08:55:04;97487.00;;;26.29;49.11
20930;BME280;21895;47.072;15.132;2023-09-07T08:57:32;97484.00;;;26.20;48.80
20930;BME280;21895;47.072;15.132;2023-09-07T08:59:59;97484.00;;;26.34;48.47
20930;BME280;21895;47.072;15.132;2023-09-07T09:02:25;97494.00;;;26.30;48.46
20930;BME280;21895;47.072;15.132;2023-09-07T09:04:52;97482.00;;;26.31;48.10
20930;BME280;21895;47.072;15.132;2023-09-07T09:07:19;97480.00;;;26.42;47.33
20930;BME280;21895;47.072;15.132;2023-09-07T09:09:47;97477.00;;;26.50;47.42
20930;BME280;21895;47.072;15.132;2023-09-07T09:12:14;97468.00;;;26.33;47.08
20930;BME280;21895;47.072;15.132;2023-09-07T09:14:45;97477.00;;;26.15;49.12
20930;BME280;21895;47.072;15.132;2023-09-07T09:17:15;97477.00;;;26.18;48.69
20930;BME280;21895;47.072;15.132;2023-09-07T09:19:42;97472.00;;;26.42;47.66
20930;BME280;21895;47.072;15.132;2023-09-07T09:22:10;97472.00;;;26.58;46.48
20930;BME280;21895;47.072;15.132;2023-09-07T09:24:38;97463.00;;;26.74;46.03
20930;BME280;21895;47.072;15.132;2023-09-07T09:27:04;97474.00;;;26.65;47.12
20930;BME280;21895;47.072;15.132;2023-09-07T09:29:35;97471.00;;;26.69;47.69
20930;BME280;21895;47.072;15.132;2023-09-07T09:32:07;97473.00;;;26.83;47.30
20930;BME280;21895;47.072;15.132;2023-09-07T09:34:36;97473.00;;;27.13;45.41
20930;BME280;21895;47.072;15.132;2023-09-07T09:37:03;97470.00;;;27.22;44.97
20930;BME280;21895;47.072;15.132;2023-09-07T09:39:30;97466.00;;;26.93;45.92
20930;BME280;21895;47.072;15.132;2023-09-07T09:41:57;97466.00;;;27.14;44.83
20930;BME280;21895;47.072;15.132;2023-09-07T09:44:24;97472.00;;;27.30;43.70
20930;BME280;21895;47.072;15.132;2023-09-07T09:46:53;97467.00;;;26.99;45.04
20930;BME280;21895;47.072;15.132;2023-09-07T09:49:22;97475.00;;;27.41;43.03
20930;BME280;21895;47.072;15.132;2023-09-07T09:51:50;97471.00;;;27.05;44.99
20930;BME280;21895;47.072;15.132;2023-09-07T09:54:20;97468.00;;;27.05;44.24
20930;BME280;21895;47.072;15.132;2023-09-07T09:56:47;97471.00;;;27.11;43.62
20930;BME280;21895;47.072;15.132;2023-09-07T09:59:15;97468.00;;;27.35;43.10
20930;BME280;21895;47.072;15.132;2023-09-07T10:01:47;97468.00;;;27.20;43.66
20930;BME280;21895;47.072;15.132;2023-09-07T10:04:18;97467.00;;;27.15;43.61
20930;BME280;21895;47.072;15.132;2023-09-07T10:07:00;97460.00;;;27.35;41.41
20930;BME280;21895;47.072;15.132;2023-09-07T10:09:35;97462.00;;;27.32;42.53
20930;BME280;21895;47.072;15.132;2023-09-07T10:12:03;97470.00;;;27.12;41.25
20930;BME280;21895;47.072;15.132;2023-09-07T10:14:41;97462.00;;;26.62;41.84
20930;BME280;21895;47.072;15.132;2023-09-07T10:17:08;97471.00;;;26.57;44.23
20930;BME280;21895;47.072;15.132;2023-09-07T10:19:36;97461.00;;;26.26;45.22
20930;BME280;21895;47.072;15.132;2023-09-07T10:22:04;97473.00;;;26.01;45.35
20930;BME280;21895;47.072;15.132;2023-09-07T10:24:33;97467.00;;;25.87;44.54
20930;BME280;21895;47.072;15.132;2023-09-07T10:27:07;97471.00;;;26.01;45.60
20930;BME280;21895;47.072;15.132;2023-09-07T10:29:46;97470.00;;;26.40;45.40
20930;BME280;21895;47.072;15.132;2023-09-07T10:32:13;97467.00;;;26.60;44.69
20930;BME280;21895;47.072;15.132;2023-09-07T10:34:45;97458.00;;;26.67;43.82
20930;BME280;21895;47.072;15.132;2023-09-07T10:37:13;97456.00;;;26.94;42.53
20930;BME280;21895;47.072;15.132;2023-09-07T10:39:43;97458.00;;;27.11;39.16
20930;BME280;21895;47.072;15.132;2023-09-07T10:42:23;97447.00;;;27.04;40.13
20930;BME280;21895;47.072;15.132;2023-09-07T10:44:50;97456.00;;;27.24;41.05
20930;BME280;21895;47.072;15.132;2023-09-07T10:47:17;97454.00;;;27.40;40.93
20930;BME280;21895;47.072;15.132;2023-09-07T10:49:43;97457.00;;;27.00;40.91
20930;BME280;21895;47.072;15.132;2023-09-07T10:52:10;97448.00;;;26.91;41.02
20930;BME280;21895;47.072;15.132;2023-09-07T10:54:37;97439.00;;;26.93;42.19
20930;BME280;21895;47.072;15.132;2023-09-07T10:57:11;97435.00;;;27.02;42.44
20930;BME280;21895;47.072;15.132;2023-09-07T10:59:45;97449.00;;;27.33;40.90
20930;BME280;21895;47.072;15.132;2023-09-07T11:02:12;97442.00;;;27.63;38.57
20930;BME280;21895;47.072;15.132;2023-09-07T11:04:38;97448.00;;;27.32;40.51
20930;BME280;21895;47.072;15.132;2023-09-07T11:07:06;97446.00;;;27.38;38.81
20930;BME280;21895;47.072;15.132;2023-09-07T11:09:32;97446.00;;;27.29;38.67
20930;BME280;21895;47.072;15.132;2023-09-07T11:12:06;97441.00;;;27.04;40.79
20930;BME280;21895;47.072;15.132;2023-09-07T11:14:33;97440.00;;;27.10;39.08
20930;BME280;21895;47.072;15.132;2023-09-07T11:17:01;97434.00;;;27.25;38.92
20930;BME280;21895;47.072;15.132;2023-09-07T11:19:33;97427.00;;;27.11;39.73
20930;BME280;21895;47.072;15.132;2023-09-07T11:22:00;97432.00;;;27.29;37.53
20930;BME280;21895;47.072;15.132;2023-09-07T11:24:26;97424.00;;;27.24;38.12
20930;BME280;21895;47.072;15.132;2023-09-07T11:26:53;97429.00;;;27.30;38.02
20930;BME280;21895;47.072;15.132;2023-09-07T11:29:19;97429.00;;;27.41;40.29
20930;BME280;21895;47.072;15.132;2023-09-07T11:31:46;97433.00;;;27.59;40.12
20930;BME280;21895;47.072;15.132;2023-09-07T11:34:15;97424.00;;;27.49;36.87
20930;BME280;21895;47.072;15.132;2023-09-07T11:36:43;97421.00;;;27.52;37.75
20930;BME280;21895;47.072;15.132;2023-09-07T11:39:10;97420.00;;;27.54;36.25
20930;BME280;21895;47.072;15.132;2023-09-07T11:41:44;97413.00;;;27.49;37.67
20930;BME280;21895;47.072;15.132;2023-09-07T11:44:12;97408.00;;;27.29;38.94
20930;BME280;21895;47.072;15.132;2023-09-07T11:46:39;97413.00;;;27.29;38.89
20930;BME280;21895;47.072;15.132;2023-09-07T11:49:06;97407.00;;;26.96;39.07
20930;BME280;21895;47.072;15.132;2023-09-07T11:51:35;97409.00;;;27.04;39.35
20930;BME280;21895;47.072;15.132;2023-09-07T11:54:03;97409.00;;;27.11;40.54
20930;BME280;21895;47.072;15.132;2023-09-07T11:56:30;97410.00;;;27.06;40.20
20930;BME280;21895;47.072;15.132;2023-09-07T11:58:57;97408.00;;;27.19;39.60
20930;BME280;21895;47.072;15.132;2023-09-07T12:01:24;97396.00;;;27.10;39.25
20930;BME280;21895;47.072;15.132;2023-09-07T12:03:52;97402.00;;;27.24;39.40
20930;BME280;21895;47.072;15.132;2023-09-07T12:06:19;97398.00;;;27.25;39.63
20930;BME280;21895;47.072;15.132;2023-09-07T12:10:38;97399.00;;;27.55;38.45
20930;BME280;21895;47.072;15.132;2023-09-07T12:13:04;97402.00;;;27.43;36.32
20930;BME280;21895;47.072;15.132;2023-09-07T12:15:31;97394.00;;;27.35;36.43
20930;BME280;21895;47.072;15.132;2023-09-07T12:17:58;97405.00;;;27.40;40.39
20930;BME280;21895;47.072;15.132;2023-09-07T12:20:25;97394.00;;;27.22;38.76
20930;BME280;21895;47.072;15.132;2023-09-07T12:22:51;97394.00;;;26.98;38.73
20930;BME280;21895;47.072;15.132;2023-09-07T12:25:18;97392.00;;;27.04;38.40
20930;BME280;21895;47.072;15.132;2023-09-07T12:27:47;97396.00;;;27.06;37.52
20930;BME280;21895;47.072;15.132;2023-09-07T12:30:20;97391.00;;;27.17;38.59
20930;BME280;21895;47.072;15.132;2023-09-07T12:32:49;97389.00;;;27.05;39.27
20930;BME280;21895;47.072;15.132;2023-09-07T12:35:16;97386.00;;;27.29;37.12
20930;BME280;21895;47.072;15.132;2023-09-07T12:37:43;97380.00;;;27.10;39.80
20930;BME280;21895;47.072;15.132;2023-09-07T12:40:11;97372.00;;;27.36;36.71
20930;BME280;21895;47.072;15.132;2023-09-07T12:42:40;97374.00;;;27.29;37.92
20930;BME280;21895;47.072;15.132;2023-09-07T12:45:08;97370.00;;;27.49;35.10
20930;BME280;21895;47.072;15.132;2023-09-07T12:47:35;97366.00;;;27.27;37.43
20930;BME280;21895;47.072;15.132;2023-09-07T12:50:03;97369.00;;;27.24;37.48
20930;BME280;21895;47.072;15.132;2023-09-07T12:52:32;97371.00;;;27.23;37.30
20930;BME280;21895;47.072;15.132;2023-09-07T12:55:03;97366.00;;;27.22;37.47
20930;BME280;21895;47.072;15.132;2023-09-07T12:57:29;97363.00;;;27.38;36.71